Terminal Aerodrome Forecast
Issued by NWS Norman, OK

Home | Current Version | Previous Version | Text Only | Print | Product List | Glossary On
Versions: 1 2 3 4 5 6 7 8 9 10 11 12 13 14 15 16 17 18 19 20 21 22 23 24
481
FTUS44 KOUN 192326
TAFOKC
TAF
KOKC 192326Z 2000/2024 14009KT P6SM SCT030 BKN060
     FM200800 13006KT P6SM OVC015
     FM201200 13005KT P6SM OVC008
     FM202100 14007KT P6SM OVC015=

USA.gov is the U.S. government's official web portal to all federal, state and local government web resources and services.